Time;durP1;ratioP1;P1;durP2;ratioP2;P2;SDS_P1;SDS_P2;PMS_P1;PMS_P2;Temp;Humidity;BMP_temperature;BMP_pressure;BME280_temperature;BME280_humidity;BME280_pressure;Samples;Min_cycle;Max_cycle;Signal;HPM_P1;HPM_P2
2022/05/10 00:00:09;;;;;;;;;;;15.40;99.90;;;;;;5011278;28;19925;-68
2022/05/10 00:02:41;;;;;;;;;;;15.30;99.90;;;;;;5012754;28;19926;-68
2022/05/10 00:05:09;;;;;;;;;;;15.30;99.90;;;;;;5011022;28;19925;-69
2022/05/10 00:07:37;;;;;;;;;;;15.20;99.90;;;;;;5011379;28;19925;-68
2022/05/10 00:10:05;;;;;;;;;;;15.20;99.90;;;;;;5011263;28;19930;-69
2022/05/10 00:12:32;;;;;;;;;;;15.10;99.90;;;;;;5011302;28;19933;-70
2022/05/10 00:14:59;;;;;;;;;;;15.10;99.90;;;;;;5010899;28;19932;-69
2022/05/10 00:17:30;;;;;;;;;;;15.10;99.90;;;;;;5010866;28;19937;-69
2022/05/10 00:19:57;;;;;;;;;;;15.10;99.90;;;;;;5011099;28;19925;-69
2022/05/10 00:22:24;;;;;;;;;;;15.00;99.90;;;;;;5011632;28;19930;-69
2022/05/10 00:24:51;;;;;;;;;;;15.00;99.90;;;;;;5010637;28;19926;-69
2022/05/10 00:27:18;;;;;;;;;;;14.90;99.90;;;;;;5026915;28;20020;-69
2022/05/10 00:29:45;;;;;;;;;;;14.80;99.90;;;;;;5010379;28;20324;-69
2022/05/10 00:32:11;;;;;;;;;;;14.80;99.90;;;;;;5010949;28;19933;-69
2022/05/10 00:34:43;;;;;;;;;;;14.90;99.90;;;;;;5010387;28;20016;-69
2022/05/10 00:37:11;;;;;;;;;;;14.80;99.90;;;;;;5011067;28;20397;-69
2022/05/10 00:39:38;;;;;;;;;;;14.80;99.90;;;;;;5010568;28;19949;-69
2022/05/10 00:42:07;;;;;;;;;;;14.80;99.90;;;;;;5010273;28;19964;-69
2022/05/10 00:44:37;;;;;;;;;;;14.80;99.90;;;;;;5010125;28;20385;-69
2022/05/10 00:47:07;;;;;;;;;;;14.70;99.90;;;;;;5010297;28;19925;-70
2022/05/10 00:49:37;;;;;;;;;;;14.70;99.90;;;;;;5010797;28;19975;-69
2022/05/10 00:52:08;;;;;;;;;;;14.70;99.90;;;;;;5010278;28;19948;-69
2022/05/10 00:54:37;;;;;;;;;;;14.70;99.90;;;;;;5009916;28;19936;-69
2022/05/10 00:57:09;;;;;;;;;;;14.70;99.90;;;;;;5010487;28;19933;-68
2022/05/10 00:59:46;;;;;;;;;;;14.70;99.90;;;;;;5009880;28;19930;-69
2022/05/10 01:02:31;;;;;;;;;;;14.60;99.90;;;;;;5010506;28;20017;-69
2022/05/10 01:05:03;;;;;;;;;;;14.60;99.90;;;;;;5009830;28;20400;-69
2022/05/10 01:07:33;;;;;;;;;;;14.60;99.90;;;;;;5010219;28;19932;-69
2022/05/10 01:10:02;;;;;;;;;;;14.60;99.90;;;;;;5010354;28;20124;-69
2022/05/10 01:12:32;;;;;;;;;;;14.50;99.90;;;;;;5010088;28;20437;-69
2022/05/10 01:15:03;;;;;;;;;;;14.50;99.90;;;;;;5009371;28;19936;-68
2022/05/10 01:17:30;;;;;;;;;;;14.50;99.90;;;;;;5009886;28;19969;-69
2022/05/10 01:19:57;;;;;;;;;;;14.50;99.90;;;;;;5009104;28;19926;-68
2022/05/10 01:22:32;;;;;;;;;;;14.40;99.90;;;;;;5009943;28;19976;-69
2022/05/10 01:25:07;;;;;;;;;;;14.40;99.90;;;;;;5009394;28;19926;-69
2022/05/10 01:27:44;;;;;;;;;;;14.40;99.90;;;;;;5010005;28;19932;-68
2022/05/10 01:30:14;;;;;;;;;;;14.30;99.90;;;;;;5009874;28;19926;-69
2022/05/10 01:35:30;;;;;;;;;;;14.30;99.90;;;;;;4974422;28;19929;-69
2022/05/10 01:37:59;;;;;;;;;;;14.30;99.90;;;;;;5009668;28;20278;-69
2022/05/10 01:40:30;;;;;;;;;;;14.30;99.90;;;;;;5008879;28;20467;-69
2022/05/10 01:42:59;;;;;;;;;;;14.30;99.90;;;;;;5009885;28;19933;-69
2022/05/10 01:45:32;;;;;;;;;;;14.30;99.90;;;;;;5009508;28;19967;-67
2022/05/10 01:48:00;;;;;;;;;;;14.30;99.90;;;;;;5009900;28;19945;-68
2022/05/10 01:50:31;;;;;;;;;;;14.30;99.90;;;;;;5009737;28;19929;-69
2022/05/10 01:53:04;;;;;;;;;;;14.30;99.90;;;;;;5009675;28;19972;-68
2022/05/10 01:55:32;;;;;;;;;;;14.30;99.90;;;;;;5009516;28;19933;-68
2022/05/10 01:58:01;;;;;;;;;;;14.30;99.90;;;;;;5009969;28;19956;-69
2022/05/10 02:00:30;;;;;;;;;;;14.30;99.90;;;;;;5009757;28;19932;-69
2022/05/10 02:02:59;;;;;;;;;;;14.30;99.90;;;;;;5009577;28;19932;-68
2022/05/10 02:05:32;;;;;;;;;;;14.20;99.90;;;;;;5009658;28;20393;-69
2022/05/10 02:08:01;;;;;;;;;;;14.20;99.90;;;;;;5009989;28;20393;-68
2022/05/10 02:10:31;;;;;;;;;;;14.30;99.90;;;;;;5009640;28;19961;-69
2022/05/10 02:13:01;;;;;;;;;;;14.20;99.90;;;;;;5009978;28;20361;-69
2022/05/10 02:15:32;;;;;;;;;;;14.20;99.90;;;;;;5009702;28;19925;-67
2022/05/10 02:18:03;;;;;;;;;;;14.20;99.90;;;;;;5010030;28;20356;-69
2022/05/10 02:20:31;;;;;;;;;;;14.20;99.90;;;;;;5009787;28;20393;-68
2022/05/10 02:23:00;;;;;;;;;;;14.20;99.90;;;;;;5009958;28;19926;-69
2022/05/10 02:25:30;;;;;;;;;;;14.20;99.90;;;;;;5009488;28;19988;-69
2022/05/10 02:27:59;;;;;;;;;;;14.20;99.90;;;;;;5009954;28;20007;-68
2022/05/10 02:30:28;;;;;;;;;;;14.20;99.90;;;;;;5009760;28;19932;-69
2022/05/10 02:33:10;;;;;;;;;;;14.20;99.90;;;;;;5009945;28;19925;-68
2022/05/10 02:35:41;;;;;;;;;;;14.20;99.90;;;;;;5009568;28;19926;-69
2022/05/10 02:38:09;;;;;;;;;;;14.20;99.90;;;;;;5009506;28;19925;-69
2022/05/10 02:40:41;;;;;;;;;;;14.20;99.90;;;;;;5009657;28;19971;-69
2022/05/10 02:43:10;;;;;;;;;;;14.20;99.90;;;;;;5009750;28;20005;-69
2022/05/10 02:45:37;;;;;;;;;;;14.20;99.90;;;;;;5009027;28;19926;-69
2022/05/10 02:48:12;;;;;;;;;;;14.20;99.90;;;;;;5009434;28;20028;-68
2022/05/10 02:50:41;;;;;;;;;;;14.10;99.90;;;;;;5009213;28;19925;-69
2022/05/10 02:53:08;;;;;;;;;;;14.10;99.90;;;;;;5012646;28;19926;-69
2022/05/10 02:55:38;;;;;;;;;;;14.10;99.90;;;;;;5037064;28;19925;-69
2022/05/10 02:58:08;;;;;;;;;;;14.00;99.90;;;;;;5035398;28;20403;-70
2022/05/10 03:00:35;;;;;;;;;;;14.00;99.90;;;;;;5032350;28;19925;-69
2022/05/10 03:03:07;;;;;;;;;;;14.00;99.90;;;;;;5032679;28;19944;-69
2022/05/10 03:05:36;;;;;;;;;;;13.90;99.90;;;;;;5032085;28;20446;-69
2022/05/10 03:08:04;;;;;;;;;;;13.90;99.90;;;;;;5032175;28;19933;-68
2022/05/10 03:10:32;;;;;;;;;;;13.90;99.90;;;;;;5032304;28;19925;-68
2022/05/10 03:12:59;;;;;;;;;;;13.90;99.90;;;;;;5048878;28;20380;-68
2022/05/10 03:15:26;;;;;;;;;;;13.90;99.90;;;;;;5032069;28;20359;-69
2022/05/10 03:17:53;;;;;;;;;;;13.90;99.90;;;;;;5032336;28;19933;-68
2022/05/10 03:20:19;;;;;;;;;;;14.00;99.90;;;;;;5031974;28;19929;-69
2022/05/10 03:22:48;;;;;;;;;;;14.00;99.90;;;;;;5031750;28;19990;-68
2022/05/10 03:25:15;;;;;;;;;;;14.00;99.90;;;;;;5031695;28;19933;-68
2022/05/10 03:27:42;;;;;;;;;;;14.00;99.90;;;;;;5031862;28;20396;-69
2022/05/10 03:30:10;;;;;;;;;;;14.00;99.90;;;;;;5031829;28;19925;-68
2022/05/10 03:32:36;;;;;;;;;;;14.00;99.90;;;;;;5032035;28;19929;-69
2022/05/10 03:35:04;;;;;;;;;;;14.00;99.90;;;;;;5031500;28;19932;-68
2022/05/10 03:37:31;;;;;;;;;;;14.00;99.90;;;;;;5031712;28;20391;-68
2022/05/10 03:40:00;;;;;;;;;;;14.00;99.90;;;;;;5031439;28;19925;-68
2022/05/10 03:42:27;;;;;;;;;;;13.90;99.90;;;;;;5031715;28;20388;-69
2022/05/10 03:44:54;;;;;;;;;;;13.90;99.90;;;;;;5028992;28;19925;-69
2022/05/10 03:47:21;;;;;;;;;;;13.80;99.90;;;;;;5029903;28;20182;-69
2022/05/10 03:49:48;;;;;;;;;;;13.80;99.90;;;;;;5029850;28;20293;-69
2022/05/10 03:52:15;;;;;;;;;;;13.80;99.90;;;;;;5030044;28;19932;-68
2022/05/10 03:54:45;;;;;;;;;;;13.80;99.90;;;;;;5029778;28;19925;-69
2022/05/10 03:57:13;;;;;;;;;;;13.80;99.90;;;;;;5030221;28;20020;-69
2022/05/10 03:59:41;;;;;;;;;;;13.80;99.90;;;;;;5030034;28;20348;-69
2022/05/10 04:02:09;;;;;;;;;;;13.70;99.90;;;;;;5031023;28;19932;-68
2022/05/10 04:04:37;;;;;;;;;;;13.70;99.90;;;;;;5031489;28;20367;-69
2022/05/10 04:07:07;;;;;;;;;;;13.70;99.90;;;;;;5030991;28;19925;-70
2022/05/10 04:09:34;;;;;;;;;;;13.70;99.90;;;;;;5030776;28;20397;-69
2022/05/10 04:12:01;;;;;;;;;;;13.70;99.90;;;;;;5031040;28;19975;-70
2022/05/10 04:14:29;;;;;;;;;;;13.70;99.90;;;;;;5031137;28;19932;-70
2022/05/10 04:16:56;;;;;;;;;;;13.80;99.90;;;;;;5030972;28;20411;-69
2022/05/10 04:19:23;;;;;;;;;;;13.70;99.90;;;;;;5031221;28;19925;-70
2022/05/10 04:21:50;;;;;;;;;;;13.70;99.90;;;;;;5031223;28;19932;-71
2022/05/10 04:24:17;;;;;;;;;;;13.70;99.90;;;;;;5030708;28;20409;-70
2022/05/10 04:26:44;;;;;;;;;;;13.70;99.90;;;;;;5030712;28;19956;-71
2022/05/10 04:29:11;;;;;;;;;;;13.70;99.90;;;;;;5030983;28;19925;-69
2022/05/10 04:31:39;;;;;;;;;;;13.70;99.90;;;;;;5031047;28;19925;-69
2022/05/10 04:34:06;;;;;;;;;;;13.70;99.90;;;;;;5030777;28;19925;-70
2022/05/10 04:36:33;;;;;;;;;;;13.70;99.90;;;;;;5030807;28;19981;-69
2022/05/10 04:39:00;;;;;;;;;;;13.70;99.90;;;;;;5030336;28;20336;-70
2022/05/10 04:41:27;;;;;;;;;;;13.70;99.90;;;;;;5030917;28;19925;-70
2022/05/10 04:43:55;;;;;;;;;;;13.60;99.90;;;;;;5030504;28;19928;-70
2022/05/10 04:46:21;;;;;;;;;;;13.70;99.90;;;;;;5030727;28;19925;-71
2022/05/10 04:48:51;;;;;;;;;;;13.70;99.90;;;;;;5029642;28;19964;-69
2022/05/10 04:51:18;;;;;;;;;;;13.70;99.90;;;;;;5030414;28;20001;-70
2022/05/10 04:53:45;;;;;;;;;;;13.70;99.90;;;;;;5030220;28;19932;-70
2022/05/10 04:56:12;;;;;;;;;;;13.70;99.90;;;;;;5030380;28;19925;-70
2022/05/10 04:58:39;;;;;;;;;;;13.60;99.90;;;;;;5030477;28;20342;-69
2022/05/10 05:01:07;;;;;;;;;;;13.60;99.90;;;;;;5029832;28;20367;-68
2022/05/10 05:03:34;;;;;;;;;;;13.60;99.90;;;;;;5023988;28;20296;-69
2022/05/10 05:06:02;;;;;;;;;;;13.70;99.90;;;;;;5028229;28;19925;-69
2022/05/10 05:08:30;;;;;;;;;;;13.70;99.90;;;;;;5033141;28;19979;-70
2022/05/10 05:10:58;;;;;;;;;;;13.70;99.90;;;;;;5041161;28;20396;-70
2022/05/10 05:13:25;;;;;;;;;;;13.80;99.90;;;;;;5029611;28;19925;-70
2022/05/10 05:15:52;;;;;;;;;;;13.80;99.90;;;;;;5029946;28;19925;-70
2022/05/10 05:18:19;;;;;;;;;;;13.90;99.90;;;;;;5030195;28;19933;-70
2022/05/10 05:20:46;;;;;;;;;;;13.90;99.90;;;;;;5014454;28;19926;-69
2022/05/10 05:23:14;;;;;;;;;;;14.00;99.90;;;;;;5010199;28;19925;-69
2022/05/10 05:25:41;;;;;;;;;;;14.10;99.90;;;;;;5009732;28;20484;-69
2022/05/10 05:28:09;;;;;;;;;;;14.10;99.90;;;;;;5010487;28;19926;-69
2022/05/10 05:30:36;;;;;;;;;;;14.20;99.90;;;;;;5010124;28;19925;-70
2022/05/10 05:33:03;;;;;;;;;;;14.30;99.90;;;;;;5010432;28;19929;-69
2022/05/10 05:35:30;;;;;;;;;;;14.40;99.90;;;;;;5009789;28;19972;-70
2022/05/10 05:37:57;;;;;;;;;;;14.40;99.90;;;;;;5010347;28;19926;-70
2022/05/10 05:40:25;;;;;;;;;;;14.50;99.90;;;;;;5010278;28;20004;-69
2022/05/10 05:42:53;;;;;;;;;;;14.50;99.90;;;;;;5010698;28;20301;-68
2022/05/10 05:45:21;;;;;;;;;;;14.60;99.90;;;;;;5009935;28;19932;-70
2022/05/10 05:47:49;;;;;;;;;;;14.60;99.90;;;;;;5024489;28;19983;-70
2022/05/10 05:50:17;;;;;;;;;;;14.60;99.90;;;;;;5039516;28;19929;-71
2022/05/10 05:52:45;;;;;;;;;;;14.60;99.90;;;;;;5031828;28;19929;-71
2022/05/10 05:55:12;;;;;;;;;;;14.70;99.90;;;;;;5029629;28;19929;-74
2022/05/10 05:57:41;;;;;;;;;;;14.70;99.90;;;;;;5029661;28;20281;-72
2022/05/10 06:00:12;;;;;;;;;;;14.70;99.90;;;;;;5029606;28;19929;-71
2022/05/10 06:02:39;;;;;;;;;;;14.80;99.90;;;;;;5030916;28;20324;-71
2022/05/10 06:05:07;;;;;;;;;;;14.80;99.90;;;;;;5029373;28;19932;-71
2022/05/10 06:07:34;;;;;;;;;;;14.90;99.90;;;;;;5029458;28;20347;-71
2022/05/10 06:10:00;;;;;;;;;;;14.90;99.90;;;;;;5031599;28;19925;-83
2022/05/10 06:12:27;;;;;;;;;;;15.00;99.90;;;;;;5030044;28;19925;-71
2022/05/10 06:14:56;;;;;;;;;;;15.10;99.90;;;;;;5029108;28;19925;-71
2022/05/10 06:17:23;;;;;;;;;;;15.20;99.90;;;;;;5029918;28;20020;-74
2022/05/10 06:19:50;;;;;;;;;;;15.30;99.90;;;;;;5029255;28;19931;-69
2022/05/10 06:22:19;;;;;;;;;;;15.40;99.90;;;;;;5029365;28;20455;-69
2022/05/10 06:24:46;;;;;;;;;;;15.50;99.90;;;;;;5028975;28;19929;-70
2022/05/10 06:27:14;;;;;;;;;;;15.50;99.90;;;;;;5033279;28;20458;-68
2022/05/10 06:29:41;;;;;;;;;;;15.60;99.90;;;;;;5032853;28;19932;-69
2022/05/10 06:32:11;;;;;;;;;;;15.70;99.90;;;;;;5033027;28;20411;-69
2022/05/10 06:34:39;;;;;;;;;;;15.70;99.90;;;;;;5032824;28;20335;-69
2022/05/10 06:38:15;;;;;;;;;;;15.80;99.90;;;;;;5033066;28;20411;-69
2022/05/10 06:39:53;;;;;;;;;;;15.90;99.90;;;;;;5039481;28;19925;-69
2022/05/10 06:42:22;;;;;;;;;;;16.10;99.90;;;;;;5038201;28;19933;-69
2022/05/10 06:44:49;;;;;;;;;;;16.20;99.90;;;;;;5032623;28;19933;-69
2022/05/10 06:47:17;;;;;;;;;;;16.40;99.90;;;;;;5032328;28;19929;-70
2022/05/10 06:49:44;;;;;;;;;;;16.60;99.90;;;;;;5026300;28;19929;-69
2022/05/10 06:52:11;;;;;;;;;;;16.80;99.90;;;;;;5032414;28;19925;-69
2022/05/10 06:54:38;;;;;;;;;;;17.10;99.90;;;;;;5031979;28;19932;-70
2022/05/10 06:57:06;;;;;;;;;;;17.30;99.90;;;;;;5032853;28;19925;-69
2022/05/10 06:59:33;;;;;;;;;;;17.60;99.90;;;;;;5032315;28;19925;-69
2022/05/10 07:02:00;;;;;;;;;;;17.80;99.90;;;;;;5032701;28;19925;-69
2022/05/10 07:04:28;;;;;;;;;;;18.00;99.90;;;;;;5032151;28;19925;-70
2022/05/10 07:06:55;;;;;;;;;;;18.20;99.90;;;;;;5032273;28;19932;-69
2022/05/10 07:09:22;;;;;;;;;;;18.40;99.90;;;;;;5032339;28;20032;-70
2022/05/10 07:11:49;;;;;;;;;;;18.50;99.90;;;;;;5018610;28;19934;-69
2022/05/10 07:14:18;;;;;;;;;;;18.70;99.90;;;;;;5012188;28;19929;-69
2022/05/10 07:16:45;;;;;;;;;;;18.90;99.90;;;;;;5012419;28;19930;-69
2022/05/10 07:19:11;;;;;;;;;;;19.10;99.90;;;;;;5012242;28;20336;-69
2022/05/10 07:21:40;;;;;;;;;;;19.20;99.90;;;;;;5012350;28;19932;-70
2022/05/10 07:24:07;;;;;;;;;;;19.40;99.90;;;;;;5011936;28;19925;-68
2022/05/10 07:26:34;;;;;;;;;;;19.40;99.90;;;;;;5012486;28;19925;-70
2022/05/10 07:29:00;;;;;;;;;;;19.50;99.90;;;;;;5012151;28;19926;-69
2022/05/10 07:31:29;;;;;;;;;;;19.60;99.90;;;;;;5024893;28;20384;-69
2022/05/10 07:33:56;;;;;;;;;;;19.70;99.90;;;;;;5034415;28;19925;-71
2022/05/10 07:36:28;;;;;;;;;;;19.80;99.90;;;;;;5031229;28;19933;-70
2022/05/10 07:38:57;;;;;;;;;;;19.90;99.90;;;;;;5032694;28;20074;-70
2022/05/10 07:41:23;;;;;;;;;;;19.90;99.90;;;;;;5034778;28;20411;-70
2022/05/10 07:43:51;;;;;;;;;;;20.00;99.90;;;;;;5028134;28;20388;-69
2022/05/10 07:46:18;;;;;;;;;;;20.10;99.90;;;;;;5029756;28;19925;-71
2022/05/10 07:48:45;;;;;;;;;;;20.20;99.90;;;;;;5041512;28;19925;-70
2022/05/10 07:51:12;;;;;;;;;;;20.30;99.90;;;;;;5031802;28;19932;-71
2022/05/10 07:53:41;;;;;;;;;;;20.50;99.90;;;;;;5031706;28;19940;-70
2022/05/10 07:56:10;;;;;;;;;;;20.70;99.90;;;;;;5035797;28;19929;-71
2022/05/10 07:58:37;;;;;;;;;;;20.90;99.90;;;;;;5039977;28;19929;-70
2022/05/10 08:01:04;;;;;;;;;;;21.10;99.90;;;;;;5031334;28;20347;-71
2022/05/10 08:03:31;;;;;;;;;;;21.30;99.90;;;;;;5029531;28;20365;-71
2022/05/10 08:05:59;;;;;;;;;;;21.50;99.90;;;;;;5031151;28;19929;-70
2022/05/10 08:08:27;;;;;;;;;;;21.70;99.90;;;;;;5029060;28;20396;-69
2022/05/10 08:10:56;;;;;;;;;;;21.80;99.90;;;;;;5027212;28;19960;-70
2022/05/10 08:13:25;;;;;;;;;;;21.90;99.90;;;;;;5031122;28;19932;-71
2022/05/10 08:15:52;;;;;;;;;;;22.10;99.90;;;;;;5030278;28;19956;-70
2022/05/10 08:18:20;;;;;;;;;;;22.30;99.90;;;;;;5031455;28;20320;-72
2022/05/10 08:20:47;;;;;;;;;;;22.30;99.90;;;;;;5031410;28;19932;-71
2022/05/10 08:23:16;;;;;;;;;;;22.50;99.90;;;;;;5030189;28;20036;-71
2022/05/10 08:25:44;;;;;;;;;;;22.70;99.90;;;;;;5030306;28;19936;-71
2022/05/10 08:28:13;;;;;;;;;;;22.70;99.90;;;;;;5030828;28;19948;-71
2022/05/10 08:30:42;;;;;;;;;;;22.80;99.90;;;;;;5030397;28;19925;-71
2022/05/10 08:33:10;;;;;;;;;;;22.90;99.90;;;;;;5030823;28;19986;-69
2022/05/10 08:35:37;;;;;;;;;;;23.10;99.90;;;;;;5030713;28;19936;-70
2022/05/10 08:38:03;;;;;;;;;;;23.30;99.90;;;;;;5030749;28;20355;-69
2022/05/10 08:40:31;;;;;;;;;;;23.40;99.90;;;;;;5030400;28;19932;-70
2022/05/10 08:43:00;;;;;;;;;;;23.50;99.90;;;;;;5030562;28;19968;-71
2022/05/10 08:45:28;;;;;;;;;;;23.60;99.90;;;;;;5030240;28;19925;-70
2022/05/10 08:47:56;;;;;;;;;;;23.90;99.90;;;;;;5030500;28;19932;-70
2022/05/10 08:50:23;;;;;;;;;;;23.90;99.90;;;;;;5029859;28;19932;-69
2022/05/10 08:52:52;;;;;;;;;;;23.90;99.90;;;;;;5030618;28;19979;-70
2022/05/10 08:55:22;;;;;;;;;;;24.10;99.90;;;;;;5029913;28;19925;-70
2022/05/10 08:57:50;;;;;;;;;;;24.10;99.90;;;;;;5030386;28;19925;-70
2022/05/10 09:00:28;;;;;;;;;;;24.10;99.90;;;;;;5030189;28;19933;-71
2022/05/10 09:03:02;;;;;;;;;;;24.20;99.90;;;;;;5030385;28;20392;-70
2022/05/10 09:05:34;;;;;;;;;;;24.40;99.90;;;;;;5030372;28;19940;-70
2022/05/10 09:08:05;;;;;;;;;;;24.50;99.90;;;;;;5030183;28;19960;-71
2022/05/10 09:10:34;;;;;;;;;;;24.50;99.90;;;;;;5026760;28;20400;-71
2022/05/10 09:13:03;;;;;;;;;;;24.50;99.90;;;;;;5010537;28;19963;-71
2022/05/10 09:15:34;;;;;;;;;;;24.70;99.90;;;;;;5010359;28;19968;-70
2022/05/10 09:18:07;;;;;;;;;;;24.70;99.90;;;;;;5010580;28;19932;-70
2022/05/10 09:20:38;;;;;;;;;;;24.50;99.90;;;;;;5010172;28;19929;-70
2022/05/10 09:23:09;;;;;;;;;;;24.20;99.90;;;;;;5010032;28;20032;-70
2022/05/10 09:25:37;;;;;;;;;;;24.20;99.90;;;;;;5010085;28;19925;-70
2022/05/10 09:28:10;;;;;;;;;;;24.20;99.90;;;;;;5010314;28;19937;-70
2022/05/10 09:30:37;;;;;;;;;;;24.40;99.90;;;;;;5010046;28;19932;-70
2022/05/10 09:36:04;;;;;;;;;;;24.40;99.90;;;;;;5010427;28;20020;-71
2022/05/10 09:38:31;;;;;;;;;;;24.50;99.90;;;;;;5009979;28;19925;-70
2022/05/10 09:40:58;;;;;;;;;;;24.50;99.90;;;;;;5019020;28;19925;-71
2022/05/10 09:43:27;;;;;;;;;;;24.30;99.90;;;;;;5029120;28;19924;-71
2022/05/10 09:46:12;;;;;;;;;;;24.40;99.90;;;;;;5028713;28;20483;-71
2022/05/10 09:48:42;;;;;;;;;;;24.60;99.90;;;;;;5028821;28;19971;-72
2022/05/10 09:51:19;;;;;;;;;;;24.80;99.90;;;;;;5029796;28;19957;-71
2022/05/10 09:53:47;;;;;;;;;;;25.10;99.90;;;;;;5029662;28;20023;-71
2022/05/10 09:56:26;;;;;;;;;;;25.00;99.90;;;;;;5030156;28;20000;-70
2022/05/10 09:58:55;;;;;;;;;;;25.00;99.90;;;;;;5040242;28;19925;-69
2022/05/10 10:01:36;;;;;;;;;;;25.20;99.90;;;;;;5033929;28;19929;-69
2022/05/10 10:04:14;;;;;;;;;;;25.10;99.90;;;;;;5031617;28;19933;-68
2022/05/10 10:06:44;;;;;;;;;;;24.90;99.90;;;;;;5034377;28;20039;-67
2022/05/10 10:09:11;;;;;;;;;;;24.70;99.90;;;;;;5031151;28;20385;-70
2022/05/10 10:11:39;;;;;;;;;;;24.60;99.90;;;;;;5025459;28;19929;-70
2022/05/10 10:14:07;;;;;;;;;;;24.50;99.90;;;;;;5033034;28;19931;-69
2022/05/10 10:16:35;;;;;;;;;;;24.70;99.90;;;;;;5042041;28;19929;-70
2022/05/10 10:19:04;;;;;;;;;;;24.70;99.90;;;;;;5029722;28;19930;-69
2022/05/10 10:21:38;;;;;;;;;;;24.40;99.90;;;;;;5025670;28;19936;-69
2022/05/10 10:24:06;;;;;;;;;;;24.50;99.90;;;;;;5033564;28;19932;-68
2022/05/10 10:26:36;;;;;;;;;;;24.30;99.90;;;;;;5038491;28;19972;-70
2022/05/10 10:29:17;;;;;;;;;;;24.20;99.90;;;;;;5033830;28;20415;-72
2022/05/10 10:31:47;;;;;;;;;;;24.20;99.90;;;;;;5028837;28;20297;-71
2022/05/10 10:34:19;;;;;;;;;;;24.00;99.90;;;;;;5040957;28;19986;-71
2022/05/10 10:36:52;;;;;;;;;;;23.90;99.90;;;;;;5038454;28;19925;-71
2022/05/10 10:39:22;;;;;;;;;;;24.10;99.90;;;;;;5038797;28;19925;-68
2022/05/10 10:41:52;;;;;;;;;;;24.30;99.90;;;;;;5033205;28;19932;-68
2022/05/10 10:44:21;;;;;;;;;;;24.50;99.90;;;;;;5032931;28;19925;-69
2022/05/10 10:46:51;;;;;;;;;;;24.50;99.90;;;;;;5033044;28;19932;-67
2022/05/10 10:49:21;;;;;;;;;;;24.70;99.90;;;;;;5030373;28;19933;-67
2022/05/10 10:51:49;;;;;;;;;;;24.90;99.90;;;;;;5033343;28;19956;-68
2022/05/10 10:54:17;;;;;;;;;;;24.90;99.90;;;;;;5033543;28;19929;-69
2022/05/10 10:56:54;;;;;;;;;;;25.10;99.90;;;;;;5033804;28;19925;-70
2022/05/10 10:59:30;;;;;;;;;;;25.10;99.90;;;;;;5033319;28;19925;-69
2022/05/10 11:02:06;;;;;;;;;;;25.20;99.90;;;;;;5033778;28;19925;-69
2022/05/10 11:04:50;;;;;;;;;;;25.30;99.90;;;;;;5033605;28;19925;-69
2022/05/10 11:07:23;;;;;;;;;;;25.50;99.90;;;;;;5020353;28;19925;-70
2022/05/10 11:09:52;;;;;;;;;;;25.60;99.90;;;;;;5032516;28;20069;-69
2022/05/10 11:12:25;;;;;;;;;;;25.70;99.90;;;;;;5028495;28;19929;-69
2022/05/10 11:15:02;;;;;;;;;;;25.70;99.90;;;;;;5031653;28;19936;-69
2022/05/10 11:17:35;;;;;;;;;;;25.90;99.90;;;;;;5029860;28;19932;-70
2022/05/10 11:20:20;;;;;;;;;;;25.70;99.90;;;;;;5013551;28;19980;-70
2022/05/10 11:22:52;;;;;;;;;;;25.70;99.90;;;;;;5042132;28;19947;-70
2022/05/10 11:25:24;;;;;;;;;;;25.40;99.90;;;;;;5033168;28;20052;-70
2022/05/10 11:28:05;;;;;;;;;;;25.40;99.90;;;;;;5032089;28;19965;-70
2022/05/10 11:30:38;;;;;;;;;;;25.60;99.90;;;;;;5025589;28;19929;-69
2022/05/10 11:33:12;;;;;;;;;;;25.80;99.90;;;;;;5032872;28;19964;-69
2022/05/10 11:35:51;;;;;;;;;;;25.90;99.90;;;;;;5030189;28;20411;-70
2022/05/10 11:38:26;;;;;;;;;;;26.10;99.90;;;;;;5032691;28;19929;-69
2022/05/10 11:40:58;;;;;;;;;;;26.50;99.90;;;;;;5025920;28;19973;-69
2022/05/10 11:43:38;;;;;;;;;;;27.10;99.90;;;;;;5035086;28;19955;-69
2022/05/10 11:46:19;;;;;;;;;;;27.00;99.90;;;;;;5027604;28;19968;-70
2022/05/10 11:48:55;;;;;;;;;;;27.20;99.90;;;;;;5030345;28;20040;-70
2022/05/10 11:51:42;;;;;;;;;;;26.10;99.90;;;;;;5036761;28;19964;-69
2022/05/10 11:54:27;;;;;;;;;;;25.70;99.90;;;;;;5026315;28;19925;-70
2022/05/10 11:56:56;;;;;;;;;;;26.10;99.90;;;;;;5025382;28;20314;-69
2022/05/10 11:59:23;;;;;;;;;;;26.20;99.90;;;;;;5041534;28;20344;-69
2022/05/10 12:01:51;;;;;;;;;;;27.60;99.90;;;;;;5031474;28;19926;-70
2022/05/10 12:04:34;;;;;;;;;;;30.20;99.90;;;;;;5030794;28;19987;-69
2022/05/10 12:07:15;;;;;;;;;;;31.10;99.90;;;;;;5029557;28;19960;-70
2022/05/10 12:09:55;;;;;;;;;;;31.00;99.90;;;;;;5038439;28;19929;-70
2022/05/10 12:12:37;;;;;;;;;;;31.10;99.90;;;;;;5012450;28;19972;-70
2022/05/10 12:21:21;;;;;;;;;;;28.40;99.90;;;;;;4954807;28;19930;-70
2022/05/10 12:24:18;;;;;;;;;;;29.50;99.90;;;;;;4954678;28;19926;-70
2022/05/10 12:26:46;;;;;;;;;;;29.50;99.90;;;;;;4905715;29;20371;-68
2022/05/10 12:29:32;;;;;;;;;;;29.20;99.90;;;;;;4988534;28;20016;-70
2022/05/10 12:32:03;;;;;;;;;;;28.90;99.90;;;;;;4994769;28;22097;-69
2022/05/10 12:34:47;;;;;;;;;;;28.20;99.90;;;;;;5022008;28;19925;-70
2022/05/10 12:37:33;;;;;;;;;;;27.30;99.90;;;;;;5027081;28;20020;-69
2022/05/10 12:40:01;;;;;;;;;;;28.50;99.90;;;;;;5030430;28;19987;-70
2022/05/10 12:42:33;;;;;;;;;;;28.60;99.90;;;;;;5030619;28;19929;-71
2022/05/10 12:45:04;;;;;;;;;;;28.50;99.90;;;;;;5026274;28;19936;-71
2022/05/10 12:47:42;;;;;;;;;;;29.80;99.90;;;;;;5030984;28;19933;-72
2022/05/10 12:50:19;;;;;;;;;;;31.20;99.90;;;;;;5030586;28;19925;-73
2022/05/10 12:52:47;;;;;;;;;;;33.10;99.90;;;;;;5030687;28;20351;-72
2022/05/10 12:55:18;;;;;;;;;;;30.50;99.90;;;;;;5028992;28;20400;-70
2022/05/10 12:57:47;;;;;;;;;;;29.90;99.90;;;;;;5036113;28;19925;-71
2022/05/10 13:00:16;;;;;;;;;;;29.10;99.90;;;;;;5036371;28;20438;-72
2022/05/10 13:02:49;;;;;;;;;;;28.20;99.90;;;;;;5030510;28;19925;-71
2022/05/10 13:05:17;;;;;;;;;;;27.70;99.90;;;;;;5029869;28;19963;-77
2022/05/10 13:08:09;;;;;;;;;;;27.30;99.90;;;;;;5029592;28;19940;-72
2022/05/10 13:10:36;;;;;;;;;;;26.80;99.90;;;;;;5026190;28;19932;-73
2022/05/10 13:13:05;;;;;;;;;;;26.60;99.90;;;;;;5010788;28;19925;-72
2022/05/10 13:15:32;;;;;;;;;;;26.90;99.90;;;;;;5010276;28;20356;-72
2022/05/10 13:18:00;;;;;;;;;;;27.30;99.90;;;;;;5010493;28;19925;-72
2022/05/10 13:20:28;;;;;;;;;;;27.30;99.90;;;;;;5010344;28;20381;-72
2022/05/10 13:23:00;;;;;;;;;;;28.00;99.90;;;;;;5010358;28;20308;-72
2022/05/10 13:25:28;;;;;;;;;;;28.40;99.90;;;;;;5010081;28;19933;-72
2022/05/10 13:28:08;;;;;;;;;;;28.40;99.90;;;;;;5010299;28;19936;-72
2022/05/10 13:30:35;;;;;;;;;;;28.90;99.90;;;;;;5010075;28;20352;-72
2022/05/10 13:33:05;;;;;;;;;;;28.80;99.90;;;;;;5013031;28;19925;-72
2022/05/10 13:35:33;;;;;;;;;;;28.50;99.90;;;;;;5025478;28;19932;-72
2022/05/10 13:38:03;;;;;;;;;;;28.20;99.90;;;;;;5027378;28;19926;-82
2022/05/10 13:40:33;;;;;;;;;;;27.60;99.90;;;;;;5025560;28;19971;-72
2022/05/10 13:43:06;;;;;;;;;;;27.20;99.90;;;;;;5026317;28;19926;-71
2022/05/10 13:45:34;;;;;;;;;;;26.90;99.90;;;;;;5026254;28;19971;-71
2022/05/10 13:48:02;;;;;;;;;;;26.40;99.90;;;;;;5029780;28;19933;-72
2022/05/10 13:50:30;;;;;;;;;;;26.70;99.90;;;;;;5029340;28;20404;-79
2022/05/10 13:52:59;;;;;;;;;;;26.40;99.90;;;;;;5042172;28;19987;-72
2022/05/10 13:55:27;;;;;;;;;;;26.40;99.90;;;;;;5029490;28;19933;-72
2022/05/10 13:57:55;;;;;;;;;;;26.60;99.90;;;;;;5029818;28;19925;-71
2022/05/10 14:00:24;;;;;;;;;;;26.50;99.90;;;;;;5030848;28;20405;-76
2022/05/10 14:02:54;;;;;;;;;;;26.10;99.90;;;;;;5039924;28;19925;-70
2022/05/10 14:05:22;;;;;;;;;;;26.10;99.90;;;;;;5029308;28;19928;-70
2022/05/10 14:07:54;;;;;;;;;;;25.90;99.90;;;;;;5029937;28;19932;-69
2022/05/10 14:10:22;;;;;;;;;;;26.00;99.90;;;;;;5026600;28;19932;-70
2022/05/10 14:12:50;;;;;;;;;;;26.00;99.90;;;;;;5008463;28;19929;-70
2022/05/10 14:15:22;;;;;;;;;;;26.10;99.90;;;;;;5008343;28;19991;-70
2022/05/10 14:17:50;;;;;;;;;;;26.10;99.90;;;;;;5008593;28;20373;-70
2022/05/10 14:20:20;;;;;;;;;;;26.30;99.90;;;;;;5008109;28;20304;-70
2022/05/10 14:22:47;;;;;;;;;;;26.90;99.90;;;;;;5009101;28;19952;-71
2022/05/10 14:25:21;;;;;;;;;;;27.50;99.90;;;;;;5008240;28;19925;-70
2022/05/10 14:27:53;;;;;;;;;;;27.90;99.90;;;;;;5010165;28;19956;-70
2022/05/10 14:30:21;;;;;;;;;;;27.90;99.90;;;;;;5009365;28;20375;-70
2022/05/10 14:32:48;;;;;;;;;;;28.10;99.90;;;;;;5009758;28;20416;-70
2022/05/10 14:35:24;;;;;;;;;;;27.80;99.90;;;;;;5009209;28;19929;-70
2022/05/10 14:37:53;;;;;;;;;;;28.10;99.90;;;;;;5009398;28;19926;-70
2022/05/10 14:40:26;;;;;;;;;;;28.60;99.90;;;;;;5009469;28;19926;-69
2022/05/10 14:42:54;;;;;;;;;;;28.30;99.90;;;;;;5009696;28;19929;-69